sensor_id;sensor_type;location;lat;lon;timestamp;temperature;humidity
44537;DHT22;30245;51.966;6.292;2023-04-01T00:00:47;15.20;67.50
44537;DHT22;30245;51.966;6.292;2023-04-01T00:03:13;15.30;67.50
44537;DHT22;30245;51.966;6.292;2023-04-01T00:05:39;15.20;67.50
44537;DHT22;30245;51.966;6.292;2023-04-01T00:08:04;15.20;67.50
44537;DHT22;30245;51.966;6.292;2023-04-01T00:10:30;15.30;67.50
44537;DHT22;30245;51.966;6.292;2023-04-01T00:12:56;15.30;67.50
44537;DHT22;30245;51.966;6.292;2023-04-01T00:15:21;15.30;67.40
44537;DHT22;30245;51.966;6.292;2023-04-01T00:17:47;15.20;67.50
44537;DHT22;30245;51.966;6.292;2023-04-01T00:20:13;15.10;67.70
44537;DHT22;30245;51.966;6.292;2023-04-01T00:22:40;15.10;67.90
44537;DHT22;30245;51.966;6.292;2023-04-01T00:25:06;15.10;68.10
44537;DHT22;30245;51.966;6.292;2023-04-01T00:27:32;15.10;68.10
44537;DHT22;30245;51.966;6.292;2023-04-01T00:29:58;15.10;68.10
44537;DHT22;30245;51.966;6.292;2023-04-01T00:32:23;15.10;68.20
44537;DHT22;30245;51.966;6.292;2023-04-01T00:34:53;15.10;68.30
44537;DHT22;30245;51.966;6.292;2023-04-01T00:37:19;15.00;68.40
44537;DHT22;30245;51.966;6.292;2023-04-01T00:39:46;14.90;68.40
44537;DHT22;30245;51.966;6.292;2023-04-01T00:42:12;15.00;68.60
44537;DHT22;30245;51.966;6.292;2023-04-01T00:44:39;14.90;68.70
44537;DHT22;30245;51.966;6.292;2023-04-01T00:47:05;14.90;68.70
44537;DHT22;30245;51.966;6.292;2023-04-01T00:49:37;14.90;68.80
44537;DHT22;30245;51.966;6.292;2023-04-01T00:52:05;14.90;68.90
44537;DHT22;30245;51.966;6.292;2023-04-01T00:54:33;14.90;68.90
44537;DHT22;30245;51.966;6.292;2023-04-01T00:57:04;14.90;68.90
44537;DHT22;30245;51.966;6.292;2023-04-01T00:59:37;14.90;68.90
44537;DHT22;30245;51.966;6.292;2023-04-01T01:02:07;14.90;68.80
44537;DHT22;30245;51.966;6.292;2023-04-01T01:04:35;14.90;68.60
44537;DHT22;30245;51.966;6.292;2023-04-01T01:07:44;15.00;68.60
44537;DHT22;30245;51.966;6.292;2023-04-01T01:10:24;15.00;68.60
44537;DHT22;30245;51.966;6.292;2023-04-01T01:16:18;15.10;68.40
44537;DHT22;30245;51.966;6.292;2023-04-01T01:18:26;15.20;68.20
44537;DHT22;30245;51.966;6.292;2023-04-01T01:37:35;15.00;68.90
44537;DHT22;30245;51.966;6.292;2023-04-01T01:40:05;15.00;68.70
44537;DHT22;30245;51.966;6.292;2023-04-01T01:42:33;15.00;68.80
44537;DHT22;30245;51.966;6.292;2023-04-01T01:45:00;15.00;68.60
44537;DHT22;30245;51.966;6.292;2023-04-01T01:47:28;15.10;68.60
44537;DHT22;30245;51.966;6.292;2023-04-01T01:49:55;15.10;68.70
44537;DHT22;30245;51.966;6.292;2023-04-01T01:52:24;15.10;68.70
44537;DHT22;30245;51.966;6.292;2023-04-01T01:54:54;15.10;68.70
44537;DHT22;30245;51.966;6.292;2023-04-01T01:57:25;15.10;68.70
44537;DHT22;30245;51.966;6.292;2023-04-01T01:59:54;15.10;68.70
44537;DHT22;30245;51.966;6.292;2023-04-01T02:02:22;15.10;68.50
44537;DHT22;30245;51.966;6.292;2023-04-01T02:04:49;15.20;68.50
44537;DHT22;30245;51.966;6.292;2023-04-01T02:07:23;15.20;68.40
44537;DHT22;30245;51.966;6.292;2023-04-01T02:09:50;15.20;68.40
44537;DHT22;30245;51.966;6.292;2023-04-01T02:12:17;15.20;68.50
44537;DHT22;30245;51.966;6.292;2023-04-01T02:14:52;15.10;68.60
44537;DHT22;30245;51.966;6.292;2023-04-01T02:17:21;15.10;68.60
44537;DHT22;30245;51.966;6.292;2023-04-01T02:19:51;15.10;68.60
44537;DHT22;30245;51.966;6.292;2023-04-01T02:22:21;15.10;68.70
44537;DHT22;30245;51.966;6.292;2023-04-01T02:24:49;15.10;68.80
44537;DHT22;30245;51.966;6.292;2023-04-01T02:27:15;15.10;68.80
44537;DHT22;30245;51.966;6.292;2023-04-01T02:29:41;15.10;68.60
44537;DHT22;30245;51.966;6.292;2023-04-01T02:32:08;15.10;68.70
44537;DHT22;30245;51.966;6.292;2023-04-01T02:34:35;15.20;68.70
44537;DHT22;30245;51.966;6.292;2023-04-01T02:37:01;15.20;68.60
44537;DHT22;30245;51.966;6.292;2023-04-01T02:39:27;15.20;68.40
44537;DHT22;30245;51.966;6.292;2023-04-01T02:41:53;15.20;68.50
44537;DHT22;30245;51.966;6.292;2023-04-01T02:44:18;15.20;68.50
44537;DHT22;30245;51.966;6.292;2023-04-01T02:46:44;15.20;68.40
44537;DHT22;30245;51.966;6.292;2023-04-01T02:49:10;15.20;68.60
44537;DHT22;30245;51.966;6.292;2023-04-01T02:51:36;15.20;68.70
44537;DHT22;30245;51.966;6.292;2023-04-01T02:54:02;15.20;68.70
44537;DHT22;30245;51.966;6.292;2023-04-01T02:56:28;15.20;68.60
44537;DHT22;30245;51.966;6.292;2023-04-01T02:58:54;15.20;68.60
44537;DHT22;30245;51.966;6.292;2023-04-01T03:01:19;15.20;68.60
44537;DHT22;30245;51.966;6.292;2023-04-01T03:03:45;15.20;68.60
44537;DHT22;30245;51.966;6.292;2023-04-01T03:06:13;15.30;68.50
44537;DHT22;30245;51.966;6.292;2023-04-01T03:08:39;15.20;68.50
44537;DHT22;30245;51.966;6.292;2023-04-01T03:11:05;15.20;68.60
44537;DHT22;30245;51.966;6.292;2023-04-01T03:13:32;15.20;68.60
44537;DHT22;30245;51.966;6.292;2023-04-01T03:15:57;15.30;68.60
44537;DHT22;30245;51.966;6.292;2023-04-01T03:18:23;15.30;68.40
44537;DHT22;30245;51.966;6.292;2023-04-01T03:20:48;15.30;68.50
44537;DHT22;30245;51.966;6.292;2023-04-01T03:23:14;15.20;68.40
44537;DHT22;30245;51.966;6.292;2023-04-01T03:25:41;15.20;68.50
44537;DHT22;30245;51.966;6.292;2023-04-01T03:28:07;15.20;68.50
44537;DHT22;30245;51.966;6.292;2023-04-01T03:30:32;15.20;68.60
44537;DHT22;30245;51.966;6.292;2023-04-01T03:32:59;15.10;68.70
44537;DHT22;30245;51.966;6.292;2023-04-01T03:35:27;15.20;68.70
44537;DHT22;30245;51.966;6.292;2023-04-01T03:37:53;15.20;68.70
44537;DHT22;30245;51.966;6.292;2023-04-01T03:40:20;15.20;68.50
44537;DHT22;30245;51.966;6.292;2023-04-01T03:42:45;15.20;68.40
44537;DHT22;30245;51.966;6.292;2023-04-01T03:45:11;15.30;68.50
44537;DHT22;30245;51.966;6.292;2023-04-01T03:47:38;15.30;68.30
44537;DHT22;30245;51.966;6.292;2023-04-01T03:50:05;15.30;68.30
44537;DHT22;30245;51.966;6.292;2023-04-01T03:52:30;15.30;68.30
44537;DHT22;30245;51.966;6.292;2023-04-01T03:54:56;15.20;68.40
44537;DHT22;30245;51.966;6.292;2023-04-01T03:57:22;15.20;68.40
44537;DHT22;30245;51.966;6.292;2023-04-01T03:59:47;15.30;68.40
44537;DHT22;30245;51.966;6.292;2023-04-01T04:02:13;15.20;68.30
44537;DHT22;30245;51.966;6.292;2023-04-01T04:04:38;15.20;68.40
44537;DHT22;30245;51.966;6.292;2023-04-01T04:07:04;15.20;68.40
44537;DHT22;30245;51.966;6.292;2023-04-01T04:09:31;15.10;68.40
44537;DHT22;30245;51.966;6.292;2023-04-01T04:11:57;15.10;68.60
44537;DHT22;30245;51.966;6.292;2023-04-01T04:14:22;15.10;68.50
44537;DHT22;30245;51.966;6.292;2023-04-01T04:16:48;15.20;68.50
44537;DHT22;30245;51.966;6.292;2023-04-01T04:19:14;15.20;68.50
44537;DHT22;30245;51.966;6.292;2023-04-01T04:21:41;15.20;68.40
44537;DHT22;30245;51.966;6.292;2023-04-01T04:24:07;15.20;68.50
44537;DHT22;30245;51.966;6.292;2023-04-01T04:26:33;15.20;68.40
44537;DHT22;30245;51.966;6.292;2023-04-01T04:28:59;15.10;68.40
44537;DHT22;30245;51.966;6.292;2023-04-01T04:31:25;15.10;69.10
44537;DHT22;30245;51.966;6.292;2023-04-01T04:33:51;15.00;68.60
44537;DHT22;30245;51.966;6.292;2023-04-01T04:36:18;15.00;68.60
44537;DHT22;30245;51.966;6.292;2023-04-01T04:38:44;15.00;68.80
44537;DHT22;30245;51.966;6.292;2023-04-01T04:41:11;15.00;68.70
44537;DHT22;30245;51.966;6.292;2023-04-01T04:43:39;14.90;68.80
44537;DHT22;30245;51.966;6.292;2023-04-01T04:46:13;15.00;68.80
44537;DHT22;30245;51.966;6.292;2023-04-01T04:48:39;15.00;68.70
44537;DHT22;30245;51.966;6.292;2023-04-01T04:51:04;15.00;68.40
44537;DHT22;30245;51.966;6.292;2023-04-01T04:53:30;15.00;68.40
44537;DHT22;30245;51.966;6.292;2023-04-01T04:55:56;15.00;68.40
44537;DHT22;30245;51.966;6.292;2023-04-01T04:58:21;15.00;68.40
44537;DHT22;30245;51.966;6.292;2023-04-01T05:00:47;15.00;68.40
44537;DHT22;30245;51.966;6.292;2023-04-01T05:03:13;15.00;68.40
44537;DHT22;30245;51.966;6.292;2023-04-01T05:05:39;15.00;68.40
44537;DHT22;30245;51.966;6.292;2023-04-01T05:08:05;15.00;68.60
44537;DHT22;30245;51.966;6.292;2023-04-01T05:10:31;15.00;68.30
44537;DHT22;30245;51.966;6.292;2023-04-01T05:12:57;15.10;68.20
44537;DHT22;30245;51.966;6.292;2023-04-01T05:15:23;15.10;68.10
44537;DHT22;30245;51.966;6.292;2023-04-01T05:17:49;15.10;68.10
44537;DHT22;30245;51.966;6.292;2023-04-01T05:20:16;15.10;68.10
44537;DHT22;30245;51.966;6.292;2023-04-01T05:22:42;15.00;68.10
44537;DHT22;30245;51.966;6.292;2023-04-01T05:25:08;15.00;68.10
44537;DHT22;30245;51.966;6.292;2023-04-01T05:27:34;15.00;68.30
44537;DHT22;30245;51.966;6.292;2023-04-01T05:30:00;14.90;68.40
44537;DHT22;30245;51.966;6.292;2023-04-01T05:32:26;14.90;68.60
44537;DHT22;30245;51.966;6.292;2023-04-01T05:34:52;14.90;68.60
44537;DHT22;30245;51.966;6.292;2023-04-01T05:37:18;14.90;68.50
44537;DHT22;30245;51.966;6.292;2023-04-01T05:39:43;14.90;68.40
44537;DHT22;30245;51.966;6.292;2023-04-01T05:42:09;14.90;68.40
44537;DHT22;30245;51.966;6.292;2023-04-01T05:44:35;14.90;68.40
44537;DHT22;30245;51.966;6.292;2023-04-01T05:47:01;14.90;68.30
44537;DHT22;30245;51.966;6.292;2023-04-01T05:49:27;15.00;69.00
44537;DHT22;30245;51.966;6.292;2023-04-01T05:51:52;15.00;68.10
44537;DHT22;30245;51.966;6.292;2023-04-01T05:54:19;15.00;68.20
44537;DHT22;30245;51.966;6.292;2023-04-01T05:56:45;15.00;68.20
44537;DHT22;30245;51.966;6.292;2023-04-01T05:59:11;15.00;68.20
44537;DHT22;30245;51.966;6.292;2023-04-01T06:01:37;15.10;68.20
44537;DHT22;30245;51.966;6.292;2023-04-01T06:04:02;15.10;68.00
44537;DHT22;30245;51.966;6.292;2023-04-01T06:06:29;15.10;68.00
44537;DHT22;30245;51.966;6.292;2023-04-01T06:08:58;15.20;67.80
44537;DHT22;30245;51.966;6.292;2023-04-01T06:17:18;15.20;67.80
44537;DHT22;30245;51.966;6.292;2023-04-01T06:19:58;15.20;67.70
44537;DHT22;30245;51.966;6.292;2023-04-01T06:25:29;15.20;67.80
44537;DHT22;30245;51.966;6.292;2023-04-01T06:31:03;15.30;67.70
44537;DHT22;30245;51.966;6.292;2023-04-01T06:48:30;15.30;67.60
44537;DHT22;30245;51.966;6.292;2023-04-01T06:50:48;15.40;67.60
44537;DHT22;30245;51.966;6.292;2023-04-01T06:53:35;15.40;67.50
44537;DHT22;30245;51.966;6.292;2023-04-01T06:56:10;15.40;67.60
44537;DHT22;30245;51.966;6.292;2023-04-01T07:01:10;15.50;67.50
44537;DHT22;30245;51.966;6.292;2023-04-01T07:03:41;15.60;67.40
44537;DHT22;30245;51.966;6.292;2023-04-01T07:06:25;15.50;67.40
44537;DHT22;30245;51.966;6.292;2023-04-01T07:08:53;15.60;67.60
44537;DHT22;30245;51.966;6.292;2023-04-01T07:11:32;15.60;67.50
44537;DHT22;30245;51.966;6.292;2023-04-01T07:14:02;15.60;67.50
44537;DHT22;30245;51.966;6.292;2023-04-01T07:16:43;15.70;67.40
44537;DHT22;30245;51.966;6.292;2023-04-01T07:19:25;15.80;67.30
44537;DHT22;30245;51.966;6.292;2023-04-01T07:22:04;15.80;67.00
44537;DHT22;30245;51.966;6.292;2023-04-01T07:24:39;15.80;66.90
44537;DHT22;30245;51.966;6.292;2023-04-01T07:27:09;15.80;67.00
44537;DHT22;30245;51.966;6.292;2023-04-01T07:29:35;15.80;67.00
44537;DHT22;30245;51.966;6.292;2023-04-01T07:34:56;16.00;66.90
44537;DHT22;30245;51.966;6.292;2023-04-01T07:42:57;16.10;66.60
44537;DHT22;30245;51.966;6.292;2023-04-01T07:54:08;16.40;66.20
44537;DHT22;30245;51.966;6.292;2023-04-01T07:59:49;16.40;66.00
44537;DHT22;30245;51.966;6.292;2023-04-01T08:05:14;16.50;66.10
44537;DHT22;30245;51.966;6.292;2023-04-01T08:13:15;16.60;65.70
44537;DHT22;30245;51.966;6.292;2023-04-01T08:21:54;16.70;65.60
44537;DHT22;30245;51.966;6.292;2023-04-01T08:24:42;16.70;65.60
44537;DHT22;30245;51.966;6.292;2023-04-01T08:27:28;16.80;65.60
44537;DHT22;30245;51.966;6.292;2023-04-01T08:32:26;16.80;65.40
44537;DHT22;30245;51.966;6.292;2023-04-01T08:35:28;16.90;65.40
44537;DHT22;30245;51.966;6.292;2023-04-01T08:38:01;16.90;65.30
44537;DHT22;30245;51.966;6.292;2023-04-01T08:40:58;16.90;65.30
44537;DHT22;30245;51.966;6.292;2023-04-01T08:43:28;16.80;65.20
44537;DHT22;30245;51.966;6.292;2023-04-01T09:00:19;16.80;65.60
44537;DHT22;30245;51.966;6.292;2023-04-01T09:02:56;16.80;65.50
44537;DHT22;30245;51.966;6.292;2023-04-01T09:40:08;17.60;64.60
44537;DHT22;30245;51.966;6.292;2023-04-01T09:50:45;17.90;64.20
44537;DHT22;30245;51.966;6.292;2023-04-01T09:53:32;18.00;64.00
44537;DHT22;30245;51.966;6.292;2023-04-01T09:59:01;18.20;64.00
44537;DHT22;30245;51.966;6.292;2023-04-01T10:18:34;18.50;63.50
44537;DHT22;30245;51.966;6.292;2023-04-01T10:29:43;18.70;63.20
44537;DHT22;30245;51.966;6.292;2023-04-01T10:35:28;18.70;63.70
44537;DHT22;30245;51.966;6.292;2023-04-01T10:46:29;19.20;62.60
44537;DHT22;30245;51.966;6.292;2023-04-01T11:06:13;18.90;63.00
44537;DHT22;30245;51.966;6.292;2023-04-01T11:12:24;19.00;62.80
44537;DHT22;30245;51.966;6.292;2023-04-01T11:17:42;18.90;62.80
44537;DHT22;30245;51.966;6.292;2023-04-01T11:20:35;18.90;62.80
44537;DHT22;30245;51.966;6.292;2023-04-01T11:34:05;19.40;62.20
44537;DHT22;30245;51.966;6.292;2023-04-01T11:44:36;19.30;62.00
44537;DHT22;30245;51.966;6.292;2023-04-01T11:47:25;19.30;62.10
44537;DHT22;30245;51.966;6.292;2023-04-01T11:51:04;19.30;61.90
44537;DHT22;30245;51.966;6.292;2023-04-01T11:53:03;19.20;62.00
44537;DHT22;30245;51.966;6.292;2023-04-01T11:58:20;19.00;62.10
44537;DHT22;30245;51.966;6.292;2023-04-01T12:06:33;18.80;62.30
44537;DHT22;30245;51.966;6.292;2023-04-01T12:12:20;18.50;62.80
44537;DHT22;30245;51.966;6.292;2023-04-01T12:26:22;18.10;63.90
44537;DHT22;30245;51.966;6.292;2023-04-01T12:34:45;18.20;63.90
44537;DHT22;30245;51.966;6.292;2023-04-01T13:05:30;18.40;63.90
44537;DHT22;30245;51.966;6.292;2023-04-01T13:16:24;18.60;63.50
44537;DHT22;30245;51.966;6.292;2023-04-01T13:19:10;18.60;63.10
44537;DHT22;30245;51.966;6.292;2023-04-01T13:22:05;18.70;63.10
44537;DHT22;30245;51.966;6.292;2023-04-01T13:27:39;18.60;63.10
44537;DHT22;30245;51.966;6.292;2023-04-01T13:32:42;18.60;63.10
44537;DHT22;30245;51.966;6.292;2023-04-01T13:38:03;18.50;63.10
44537;DHT22;30245;51.966;6.292;2023-04-01T13:43:01;18.50;63.30
44537;DHT22;30245;51.966;6.292;2023-04-01T13:51:29;18.20;63.60
44537;DHT22;30245;51.966;6.292;2023-04-01T13:54:25;18.20;63.80
44537;DHT22;30245;51.966;6.292;2023-04-01T14:05:48;18.00;63.50
44537;DHT22;30245;51.966;6.292;2023-04-01T14:16:49;17.80;63.40
44537;DHT22;30245;51.966;6.292;2023-04-01T14:28:12;17.80;63.40
44537;DHT22;30245;51.966;6.292;2023-04-01T14:45:03;17.90;62.70
44537;DHT22;30245;51.966;6.292;2023-04-01T14:50:28;17.90;62.80
44537;DHT22;30245;51.966;6.292;2023-04-01T14:58:12;18.00;62.70
44537;DHT22;30245;51.966;6.292;2023-04-01T15:03:32;17.90;62.80
44537;DHT22;30245;51.966;6.292;2023-04-01T15:16:51;17.90;63.20
44537;DHT22;30245;51.966;6.292;2023-04-01T15:25:25;17.90;63.10
44537;DHT22;30245;51.966;6.292;2023-04-01T15:31:26;17.90;63.00
44537;DHT22;30245;51.966;6.292;2023-04-01T15:37:21;18.00;63.00
44537;DHT22;30245;51.966;6.292;2023-04-01T15:40:06;18.00;63.00
44537;DHT22;30245;51.966;6.292;2023-04-01T15:45:35;18.00;63.70
44537;DHT22;30245;51.966;6.292;2023-04-01T15:48:31;17.80;63.30
44537;DHT22;30245;51.966;6.292;2023-04-01T15:51:11;17.80;63.50
44537;DHT22;30245;51.966;6.292;2023-04-01T15:53:43;17.80;63.50
44537;DHT22;30245;51.966;6.292;2023-04-01T15:59:06;17.70;63.60
44537;DHT22;30245;51.966;6.292;2023-04-01T16:01:46;17.70;63.70
44537;DHT22;30245;51.966;6.292;2023-04-01T16:10:09;17.60;63.60
44537;DHT22;30245;51.966;6.292;2023-04-01T16:18:44;17.60;63.80
44537;DHT22;30245;51.966;6.292;2023-04-01T16:21:14;17.60;63.80
44537;DHT22;30245;51.966;6.292;2023-04-01T16:23:51;17.70;63.70
44537;DHT22;30245;51.966;6.292;2023-04-01T16:29:08;17.60;63.70
44537;DHT22;30245;51.966;6.292;2023-04-01T16:34:14;17.60;63.70
44537;DHT22;30245;51.966;6.292;2023-04-01T16:36:48;17.60;63.60
44537;DHT22;30245;51.966;6.292;2023-04-01T16:47:31;17.30;63.70
44537;DHT22;30245;51.966;6.292;2023-04-01T16:53:45;17.20;64.10
44537;DHT22;30245;51.966;6.292;2023-04-01T16:58:36;17.20;64.10
44537;DHT22;30245;51.966;6.292;2023-04-01T17:01:13;17.20;64.00
44537;DHT22;30245;51.966;6.292;2023-04-01T17:03:45;17.10;63.90
44537;DHT22;30245;51.966;6.292;2023-04-01T17:16:46;17.00;63.90
44537;DHT22;30245;51.966;6.292;2023-04-01T17:23:50;16.90;63.90
44537;DHT22;30245;51.966;6.292;2023-04-01T17:34:09;16.70;64.00
44537;DHT22;30245;51.966;6.292;2023-04-01T17:42:14;16.60;64.10
44537;DHT22;30245;51.966;6.292;2023-04-01T17:50:17;16.40;63.80
44537;DHT22;30245;51.966;6.292;2023-04-01T17:53:17;16.40;64.00
44537;DHT22;30245;51.966;6.292;2023-04-01T17:55:51;16.30;64.00
44537;DHT22;30245;51.966;6.292;2023-04-01T17:58:29;16.30;64.00
44537;DHT22;30245;51.966;6.292;2023-04-01T18:22:53;16.00;64.00
44537;DHT22;30245;51.966;6.292;2023-04-01T18:25:32;15.90;64.00
44537;DHT22;30245;51.966;6.292;2023-04-01T18:31:54;15.90;64.00
44537;DHT22;30245;51.966;6.292;2023-04-01T18:35:17;15.80;64.00
44537;DHT22;30245;51.966;6.292;2023-04-01T18:40:21;15.80;64.00
44537;DHT22;30245;51.966;6.292;2023-04-01T18:43:12;15.80;64.00
44537;DHT22;30245;51.966;6.292;2023-04-01T18:46:01;15.70;63.90
44537;DHT22;30245;51.966;6.292;2023-04-01T18:51:39;15.70;63.80
44537;DHT22;30245;51.966;6.292;2023-04-01T18:54:14;15.70;63.80
44537;DHT22;30245;51.966;6.292;2023-04-01T18:56:43;15.70;63.80
44537;DHT22;30245;51.966;6.292;2023-04-01T18:59:17;15.70;63.80
44537;DHT22;30245;51.966;6.292;2023-04-01T19:04:52;15.60;63.90
44537;DHT22;30245;51.966;6.292;2023-04-01T19:13:03;15.60;63.70
44537;DHT22;30245;51.966;6.292;2023-04-01T19:15:47;15.50;63.70
44537;DHT22;30245;51.966;6.292;2023-04-01T19:18:36;15.40;63.60
44537;DHT22;30245;51.966;6.292;2023-04-01T19:21:28;15.50;63.70
44537;DHT22;30245;51.966;6.292;2023-04-01T19:38:12;15.20;63.50
44537;DHT22;30245;51.966;6.292;2023-04-01T19:40:53;15.30;63.60
44537;DHT22;30245;51.966;6.292;2023-04-01T19:51:51;15.10;63.50
44537;DHT22;30245;51.966;6.292;2023-04-01T20:04:42;15.00;63.60
44537;DHT22;30245;51.966;6.292;2023-04-01T20:07:31;14.90;63.60
44537;DHT22;30245;51.966;6.292;2023-04-01T20:15:22;14.90;63.50
44537;DHT22;30245;51.966;6.292;2023-04-01T20:17:53;14.90;63.40
44537;DHT22;30245;51.966;6.292;2023-04-01T20:20:28;14.90;63.40
44537;DHT22;30245;51.966;6.292;2023-04-01T20:25:39;14.80;63.40
44537;DHT22;30245;51.966;6.292;2023-04-01T20:28:29;14.80;63.40
44537;DHT22;30245;51.966;6.292;2023-04-01T20:31:31;14.90;63.40
44537;DHT22;30245;51.966;6.292;2023-04-01T20:42:47;14.80;63.20
44537;DHT22;30245;51.966;6.292;2023-04-01T20:48:15;14.70;63.20
44537;DHT22;30245;51.966;6.292;2023-04-01T20:50:56;14.70;63.20
44537;DHT22;30245;51.966;6.292;2023-04-01T20:58:51;14.50;63.10
44537;DHT22;30245;51.966;6.292;2023-04-01T21:01:31;14.50;63.20
44537;DHT22;30245;51.966;6.292;2023-04-01T21:07:09;14.50;63.00
44537;DHT22;30245;51.966;6.292;2023-04-01T21:12:34;14.40;63.00
44537;DHT22;30245;51.966;6.292;2023-04-01T21:15:38;14.30;63.00
44537;DHT22;30245;51.966;6.292;2023-04-01T21:43:25;14.20;62.60
44537;DHT22;30245;51.966;6.292;2023-04-01T22:08:04;13.90;62.40
44537;DHT22;30245;51.966;6.292;2023-04-01T22:10:44;13.90;63.10
44537;DHT22;30245;51.966;6.292;2023-04-01T22:13:26;13.80;62.40
44537;DHT22;30245;51.966;6.292;2023-04-01T22:19:09;13.70;62.40
44537;DHT22;30245;51.966;6.292;2023-04-01T22:21:41;13.70;62.30
44537;DHT22;30245;51.966;6.292;2023-04-01T22:32:18;13.60;62.50
44537;DHT22;30245;51.966;6.292;2023-04-01T22:35:10;13.60;62.40
44537;DHT22;30245;51.966;6.292;2023-04-01T22:43:44;13.70;62.20
44537;DHT22;30245;51.966;6.292;2023-04-01T22:49:15;13.70;62.10
44537;DHT22;30245;51.966;6.292;2023-04-01T22:52:33;13.60;62.20
44537;DHT22;30245;51.966;6.292;2023-04-01T22:54:38;13.60;62.10
44537;DHT22;30245;51.966;6.292;2023-04-01T23:02:18;13.50;62.20
44537;DHT22;30245;51.966;6.292;2023-04-01T23:04:52;13.50;62.10
44537;DHT22;30245;51.966;6.292;2023-04-01T23:07:31;13.50;62.10
44537;DHT22;30245;51.966;6.292;2023-04-01T23:10:01;13.50;62.20
44537;DHT22;30245;51.966;6.292;2023-04-01T23:12:28;13.60;62.10
44537;DHT22;30245;51.966;6.292;2023-04-01T23:14:58;13.50;62.00
44537;DHT22;30245;51.966;6.292;2023-04-01T23:20:09;13.50;62.60
44537;DHT22;30245;51.966;6.292;2023-04-01T23:28:17;13.40;61.90
44537;DHT22;30245;51.966;6.292;2023-04-01T23:36:10;13.40;62.00
44537;DHT22;30245;51.966;6.292;2023-04-01T23:38:38;13.30;61.90
44537;DHT22;30245;51.966;6.292;2023-04-01T23:41:08;13.30;62.00
44537;DHT22;30245;51.966;6.292;2023-04-01T23:43:37;13.30;62.00
44537;DHT22;30245;51.966;6.292;2023-04-01T23:46:05;13.30;62.70
44537;DHT22;30245;51.966;6.292;2023-04-01T23:51:03;13.20;62.30
44537;DHT22;30245;51.966;6.292;2023-04-01T23:53:33;13.20;62.10
44537;DHT22;30245;51.966;6.292;2023-04-01T23:56:01;13.10;62.10
44537;DHT22;30245;51.966;6.292;2023-04-01T23:58:41;13.10;62.30
